PBD485 UUWW-UWLL
Flight info
| Callsign | PBD485 |
|---|---|
| Flight time | 1h 7m |
| Altitude | 35000 |
| Route | KOGOM3X KOGOM L94 EKPIR M864 IBROT T784 OTKOL T787 OKSUD T778 TERDI TERDI1E |
| Aircraft | B738/M-SDE2E3FGHIRWXY/LB1 |
Departure
| Time | 2026-04-30 19:19 |
|---|---|
| Airport | Vnukovo International Airport (UUWW) |
Arrival
| Time | 2026-04-30 20:26 |
|---|---|
| Airport | Ulyanovsk Baratayevka Airport (UWLL) |
| Time | Latitude | Longitude | Altitude | Speed | Heading |
|---|---|---|---|---|---|
| 2026-04-30 18:27 | 55.60037 | 37.27923 | 686 ft | 0 kts | 24° |
| 2026-04-30 19:09 | 55.60038 | 37.27924 | 694 ft | 2 kts | 24° |
| 2026-04-30 19:09 | 55.60051 | 37.27934 | 690 ft | 4 kts | 24° |
| 2026-04-30 19:09 | 55.60094 | 37.27948 | 686 ft | 7 kts | 337° |
| 2026-04-30 19:10 | 55.60062 | 37.27802 | 692 ft | 8 kts | 221° |
| 2026-04-30 19:10 | 55.59979 | 37.27674 | 688 ft | 8 kts | 229° |
| 2026-04-30 19:11 | 55.59947 | 37.27601 | 691 ft | 8 kts | 243° |
| 2026-04-30 19:11 | 55.59866 | 37.27437 | 691 ft | 9 kts | 226° |
| 2026-04-30 19:11 | 55.59822 | 37.27356 | 688 ft | 9 kts | 226° |
| 2026-04-30 19:12 | 55.59777 | 37.27269 | 692 ft | 13 kts | 228° |
| 2026-04-30 19:12 | 55.59699 | 37.27124 | 690 ft | 17 kts | 225° |
| 2026-04-30 19:12 | 55.59619 | 37.26980 | 688 ft | 16 kts | 225° |
| 2026-04-30 19:13 | 55.59523 | 37.26750 | 691 ft | 9 kts | 246° |
| 2026-04-30 19:13 | 55.59498 | 37.26648 | 692 ft | 0 kts | 249° |
| 2026-04-30 19:14 | 55.59498 | 37.26647 | 691 ft | 1 kts | 249° |
| 2026-04-30 19:14 | 55.59452 | 37.26441 | 689 ft | 26 kts | 248° |
| 2026-04-30 19:14 | 55.59387 | 37.26149 | 689 ft | 24 kts | 248° |
| 2026-04-30 19:14 | 55.59325 | 37.25884 | 690 ft | 23 kts | 248° |
| 2026-04-30 19:15 | 55.59268 | 37.25626 | 690 ft | 22 kts | 249° |
| 2026-04-30 19:15 | 55.59159 | 37.25130 | 688 ft | 21 kts | 246° |
| 2026-04-30 19:15 | 55.59106 | 37.24894 | 690 ft | 20 kts | 248° |
| 2026-04-30 19:16 | 55.59053 | 37.24665 | 688 ft | 20 kts | 248° |
| 2026-04-30 19:16 | 55.59002 | 37.24443 | 688 ft | 19 kts | 248° |
| 2026-04-30 19:16 | 55.58886 | 37.24043 | 689 ft | 16 kts | 243° |
| 2026-04-30 19:17 | 55.58839 | 37.23882 | 691 ft | 6 kts | 243° |
| 2026-04-30 19:17 | 55.58751 | 37.23818 | 691 ft | 13 kts | 156° |
| 2026-04-30 19:17 | 55.58667 | 37.23896 | 688 ft | 13 kts | 125° |
| 2026-04-30 19:18 | 55.58715 | 37.24152 | 691 ft | 18 kts | 68° |
| 2026-04-30 19:18 | 55.58812 | 37.24613 | 691 ft | 60 kts | 69° |
| 2026-04-30 19:18 | 55.59060 | 37.25722 | 693 ft | 131 kts | 68° |
| 2026-04-30 19:19 | 55.59470 | 37.27524 | 832 ft | 175 kts | 68° |
| 2026-04-30 19:19 | 55.59938 | 37.29618 | 1498 ft | 192 kts | 68° |
| 2026-04-30 19:19 | 55.60897 | 37.33965 | 3155 ft | 202 kts | 68° |
| 2026-04-30 19:20 | 55.61434 | 37.36357 | 3498 ft | 218 kts | 67° |
| 2026-04-30 19:20 | 55.61885 | 37.38983 | 3882 ft | 230 kts | 85° |
| 2026-04-30 19:20 | 55.60774 | 37.44432 | 4865 ft | 244 kts | 115° |
| 2026-04-30 19:21 | 55.60069 | 37.47190 | 5420 ft | 251 kts | 111° |
| 2026-04-30 19:21 | 55.58685 | 37.53163 | 6499 ft | 271 kts | 111° |
| 2026-04-30 19:22 | 55.57219 | 37.59385 | 7822 ft | 274 kts | 103° |
| 2026-04-30 19:22 | 55.59017 | 37.68518 | 7988 ft | 271 kts | 58° |
| 2026-04-30 19:23 | 55.61817 | 37.77083 | 8004 ft | 266 kts | 58° |
| 2026-04-30 19:24 | 55.63533 | 37.83021 | 8830 ft | 275 kts | 68° |
| 2026-04-30 19:24 | 55.64175 | 37.86209 | 9664 ft | 276 kts | 70° |
| 2026-04-30 19:24 | 55.65458 | 37.92867 | 10531 ft | 306 kts | 70° |
| 2026-04-30 19:25 | 55.67752 | 38.04460 | 11640 ft | 348 kts | 70° |
| 2026-04-30 19:26 | 55.69385 | 38.12608 | 13065 ft | 355 kts | 69° |
| 2026-04-30 19:26 | 55.71059 | 38.20950 | 14463 ft | 363 kts | 69° |
| 2026-04-30 19:26 | 55.71907 | 38.25180 | 15162 ft | 366 kts | 69° |
| 2026-04-30 19:27 | 55.73622 | 38.33754 | 16540 ft | 372 kts | 70° |
| 2026-04-30 19:27 | 55.75366 | 38.42502 | 17864 ft | 380 kts | 70° |
| 2026-04-30 19:28 | 55.76249 | 38.46946 | 18529 ft | 383 kts | 70° |
| 2026-04-30 19:28 | 55.78029 | 38.55944 | 19717 ft | 388 kts | 70° |
| 2026-04-30 19:29 | 55.79821 | 38.65044 | 20923 ft | 393 kts | 70° |
| 2026-04-30 19:29 | 55.80724 | 38.69644 | 21473 ft | 396 kts | 70° |
| 2026-04-30 19:30 | 55.83464 | 38.83665 | 23086 ft | 405 kts | 70° |
| 2026-04-30 19:30 | 55.85316 | 38.93202 | 24022 ft | 411 kts | 70° |
| 2026-04-30 19:31 | 55.87190 | 39.02900 | 24789 ft | 417 kts | 70° |
| 2026-04-30 19:31 | 55.88133 | 39.07802 | 25193 ft | 420 kts | 70° |
| 2026-04-30 19:31 | 55.90030 | 39.17697 | 25938 ft | 425 kts | 70° |
| 2026-04-30 19:32 | 55.90988 | 39.22711 | 26282 ft | 429 kts | 70° |
| 2026-04-30 19:32 | 55.91951 | 39.27765 | 26635 ft | 431 kts | 70° |
| 2026-04-30 19:32 | 55.92914 | 39.32835 | 26996 ft | 434 kts | 70° |
| 2026-04-30 19:32 | 55.93882 | 39.37945 | 27342 ft | 436 kts | 70° |
| 2026-04-30 19:33 | 55.94854 | 39.43091 | 27669 ft | 439 kts | 70° |
| 2026-04-30 19:33 | 55.95831 | 39.48275 | 27985 ft | 442 kts | 70° |
| 2026-04-30 19:33 | 55.96810 | 39.53478 | 28335 ft | 444 kts | 70° |
| 2026-04-30 19:33 | 55.97792 | 39.58714 | 28659 ft | 446 kts | 70° |
| 2026-04-30 19:34 | 55.98775 | 39.63970 | 28952 ft | 449 kts | 70° |
| 2026-04-30 19:34 | 55.99690 | 39.69333 | 29196 ft | 453 kts | 75° |
| 2026-04-30 19:34 | 55.98931 | 39.80422 | 30110 ft | 456 kts | 109° |
| 2026-04-30 19:35 | 55.97760 | 39.85647 | 30685 ft | 452 kts | 109° |
| 2026-04-30 19:35 | 55.95964 | 39.96537 | 30817 ft | 462 kts | 100° |
| 2026-04-30 19:35 | 55.95303 | 40.02150 | 31133 ft | 461 kts | 100° |
| 2026-04-30 19:36 | 55.94643 | 40.07738 | 31525 ft | 459 kts | 101° |
| 2026-04-30 19:36 | 55.93928 | 40.13287 | 31832 ft | 460 kts | 102° |
| 2026-04-30 19:36 | 55.92280 | 40.24373 | 32268 ft | 464 kts | 104° |
| 2026-04-30 19:37 | 55.91372 | 40.29885 | 32582 ft | 464 kts | 105° |
| 2026-04-30 19:37 | 55.90442 | 40.35386 | 32929 ft | 463 kts | 105° |
| 2026-04-30 19:37 | 55.89508 | 40.40875 | 33200 ft | 463 kts | 105° |
| 2026-04-30 19:37 | 55.88574 | 40.46379 | 33406 ft | 465 kts | 105° |
| 2026-04-30 19:38 | 55.87642 | 40.51907 | 33640 ft | 466 kts | 105° |
| 2026-04-30 19:38 | 55.86713 | 40.57437 | 33950 ft | 465 kts | 105° |
| 2026-04-30 19:38 | 55.85790 | 40.62945 | 34248 ft | 465 kts | 105° |
| 2026-04-30 19:38 | 55.84865 | 40.68463 | 34449 ft | 466 kts | 105° |
| 2026-04-30 19:39 | 55.83937 | 40.73987 | 34617 ft | 467 kts | 105° |
| 2026-04-30 19:39 | 55.83005 | 40.79524 | 34828 ft | 467 kts | 105° |
| 2026-04-30 19:39 | 55.82070 | 40.85051 | 35069 ft | 466 kts | 106° |
| 2026-04-30 19:39 | 55.81133 | 40.90575 | 35244 ft | 467 kts | 106° |
| 2026-04-30 19:40 | 55.79249 | 41.01618 | 35231 ft | 469 kts | 106° |
| 2026-04-30 19:40 | 55.77355 | 41.12649 | 35218 ft | 464 kts | 106° |
| 2026-04-30 19:41 | 55.75453 | 41.23659 | 35217 ft | 470 kts | 106° |
| 2026-04-30 19:41 | 55.73512 | 41.34832 | 35207 ft | 477 kts | 107° |
| 2026-04-30 19:42 | 55.71543 | 41.46088 | 35196 ft | 479 kts | 107° |
| 2026-04-30 19:42 | 55.69561 | 41.57351 | 35210 ft | 479 kts | 107° |
| 2026-04-30 19:43 | 55.67565 | 41.68626 | 35189 ft | 479 kts | 107° |
| 2026-04-30 19:44 | 55.64559 | 41.85467 | 35196 ft | 477 kts | 107° |
| 2026-04-30 19:44 | 55.62547 | 41.96657 | 35186 ft | 476 kts | 107° |
| 2026-04-30 19:45 | 55.60531 | 42.07799 | 35194 ft | 475 kts | 108° |
| 2026-04-30 19:45 | 55.58504 | 42.18919 | 35188 ft | 475 kts | 108° |
| 2026-04-30 19:46 | 55.56473 | 42.30002 | 35187 ft | 474 kts | 108° |
| 2026-04-30 19:46 | 55.54778 | 42.39207 | 35186 ft | 474 kts | 108° |
| 2026-04-30 19:47 | 55.52387 | 42.52120 | 35181 ft | 473 kts | 108° |
| 2026-04-30 19:47 | 55.50332 | 42.63152 | 35187 ft | 473 kts | 108° |
| 2026-04-30 19:48 | 55.48281 | 42.74094 | 35179 ft | 473 kts | 108° |
| 2026-04-30 19:48 | 55.46205 | 42.85104 | 35177 ft | 473 kts | 109° |
| 2026-04-30 19:49 | 55.44118 | 42.96108 | 35175 ft | 473 kts | 109° |
| 2026-04-30 19:49 | 55.40968 | 43.12598 | 35172 ft | 474 kts | 109° |
| 2026-04-30 19:50 | 55.39199 | 43.21798 | 35174 ft | 474 kts | 109° |
| 2026-04-30 19:50 | 55.37091 | 43.32709 | 35165 ft | 474 kts | 109° |
| 2026-04-30 19:51 | 55.34956 | 43.43686 | 35162 ft | 475 kts | 109° |
| 2026-04-30 19:51 | 55.32813 | 43.54652 | 35168 ft | 475 kts | 109° |
| 2026-04-30 19:52 | 55.30659 | 43.65604 | 35156 ft | 475 kts | 110° |
| 2026-04-30 19:52 | 55.28496 | 43.76546 | 35153 ft | 475 kts | 110° |
| 2026-04-30 19:53 | 55.26325 | 43.87464 | 35154 ft | 472 kts | 110° |
| 2026-04-30 19:53 | 55.24173 | 43.98230 | 35135 ft | 465 kts | 110° |
| 2026-04-30 19:54 | 55.22030 | 44.08887 | 35146 ft | 463 kts | 110° |
| 2026-04-30 19:54 | 55.19884 | 44.19505 | 35131 ft | 462 kts | 110° |
| 2026-04-30 19:55 | 55.17732 | 44.30095 | 35143 ft | 462 kts | 111° |
| 2026-04-30 19:55 | 55.15569 | 44.40686 | 35124 ft | 463 kts | 111° |
| 2026-04-30 19:56 | 55.13373 | 44.51274 | 35130 ft | 463 kts | 114° |
| 2026-04-30 19:56 | 55.11894 | 44.56242 | 35030 ft | 462 kts | 129° |
| 2026-04-30 19:56 | 55.09808 | 44.60441 | 35235 ft | 455 kts | 135° |
| 2026-04-30 19:57 | 55.05906 | 44.69189 | 35118 ft | 462 kts | 116° |
| 2026-04-30 19:57 | 55.03447 | 44.79564 | 35141 ft | 464 kts | 116° |
| 2026-04-30 19:58 | 55.00208 | 44.89278 | 35170 ft | 463 kts | 126° |
| 2026-04-30 19:58 | 54.98355 | 44.93881 | 34952 ft | 468 kts | 127° |
| 2026-04-30 19:58 | 54.96458 | 44.98553 | 34257 ft | 474 kts | 127° |
| 2026-04-30 19:59 | 54.94595 | 45.03247 | 33593 ft | 471 kts | 126° |
| 2026-04-30 19:59 | 54.92767 | 45.07985 | 32779 ft | 471 kts | 126° |
| 2026-04-30 19:59 | 54.89274 | 45.17330 | 31613 ft | 451 kts | 125° |
| 2026-04-30 20:00 | 54.87593 | 45.21884 | 31117 ft | 447 kts | 125° |
| 2026-04-30 20:00 | 54.85917 | 45.26419 | 30626 ft | 443 kts | 125° |
| 2026-04-30 20:00 | 54.84260 | 45.30894 | 30144 ft | 439 kts | 125° |
| 2026-04-30 20:00 | 54.82611 | 45.35330 | 29548 ft | 435 kts | 126° |
| 2026-04-30 20:01 | 54.79376 | 45.44001 | 28543 ft | 423 kts | 127° |
| 2026-04-30 20:01 | 54.77790 | 45.48237 | 28091 ft | 417 kts | 127° |
| 2026-04-30 20:01 | 54.76218 | 45.52425 | 27556 ft | 412 kts | 127° |
| 2026-04-30 20:02 | 54.73127 | 45.60635 | 26594 ft | 403 kts | 128° |
| 2026-04-30 20:02 | 54.71604 | 45.64669 | 26171 ft | 397 kts | 129° |
| 2026-04-30 20:03 | 54.68622 | 45.72547 | 25210 ft | 391 kts | 129° |
| 2026-04-30 20:03 | 54.67139 | 45.76457 | 24765 ft | 387 kts | 130° |
| 2026-04-30 20:03 | 54.65670 | 45.80324 | 24292 ft | 384 kts | 130° |
| 2026-04-30 20:03 | 54.64208 | 45.84166 | 23846 ft | 381 kts | 131° |
| 2026-04-30 20:04 | 54.62755 | 45.87978 | 23323 ft | 379 kts | 131° |
| 2026-04-30 20:04 | 54.61312 | 45.91754 | 22834 ft | 375 kts | 131° |
| 2026-04-30 20:04 | 54.59885 | 45.95484 | 22413 ft | 369 kts | 131° |
| 2026-04-30 20:05 | 54.57084 | 46.02791 | 21533 ft | 360 kts | 130° |
| 2026-04-30 20:05 | 54.55708 | 46.06374 | 21052 ft | 358 kts | 130° |
| 2026-04-30 20:05 | 54.52985 | 46.13446 | 20210 ft | 351 kts | 130° |
| 2026-04-30 20:06 | 54.51637 | 46.16939 | 19775 ft | 349 kts | 130° |
| 2026-04-30 20:06 | 54.50304 | 46.20388 | 19368 ft | 346 kts | 130° |
| 2026-04-30 20:06 | 54.48974 | 46.23826 | 18934 ft | 344 kts | 129° |
| 2026-04-30 20:06 | 54.47655 | 46.27232 | 18536 ft | 341 kts | 129° |
| 2026-04-30 20:07 | 54.46345 | 46.30612 | 18086 ft | 339 kts | 129° |
| 2026-04-30 20:07 | 54.45040 | 46.33972 | 17639 ft | 336 kts | 129° |
| 2026-04-30 20:07 | 54.42470 | 46.40584 | 16810 ft | 330 kts | 129° |
| 2026-04-30 20:08 | 54.41216 | 46.43800 | 16474 ft | 326 kts | 129° |
| 2026-04-30 20:08 | 54.39960 | 46.47020 | 16031 ft | 325 kts | 129° |
| 2026-04-30 20:08 | 54.38705 | 46.50229 | 15631 ft | 323 kts | 129° |
| 2026-04-30 20:08 | 54.37460 | 46.53410 | 15257 ft | 320 kts | 129° |
| 2026-04-30 20:09 | 54.36219 | 46.56576 | 14820 ft | 320 kts | 128° |
| 2026-04-30 20:09 | 54.34981 | 46.59733 | 14447 ft | 318 kts | 128° |
| 2026-04-30 20:09 | 54.32518 | 46.66000 | 13617 ft | 316 kts | 128° |
| 2026-04-30 20:10 | 54.30073 | 46.72207 | 12777 ft | 313 kts | 128° |
| 2026-04-30 20:10 | 54.28858 | 46.75290 | 12368 ft | 311 kts | 128° |
| 2026-04-30 20:10 | 54.27648 | 46.78352 | 11966 ft | 310 kts | 127° |
| 2026-04-30 20:11 | 54.25249 | 46.84427 | 11192 ft | 307 kts | 126° |
| 2026-04-30 20:11 | 54.24240 | 46.87657 | 10743 ft | 309 kts | 113° |
| 2026-04-30 20:11 | 54.23911 | 46.91209 | 10630 ft | 295 kts | 94° |
| 2026-04-30 20:12 | 54.23854 | 46.97952 | 10361 ft | 274 kts | 98° |
| 2026-04-30 20:12 | 54.23653 | 47.01157 | 10262 ft | 274 kts | 101° |
| 2026-04-30 20:12 | 54.23400 | 47.04422 | 10166 ft | 278 kts | 101° |
| 2026-04-30 20:13 | 54.23142 | 47.07680 | 9903 ft | 278 kts | 101° |
| 2026-04-30 20:13 | 54.22883 | 47.10959 | 9589 ft | 277 kts | 101° |
| 2026-04-30 20:13 | 54.22631 | 47.14208 | 9319 ft | 276 kts | 101° |
| 2026-04-30 20:13 | 54.22381 | 47.17455 | 9018 ft | 275 kts | 100° |
| 2026-04-30 20:14 | 54.22133 | 47.20690 | 8754 ft | 274 kts | 100° |
| 2026-04-30 20:14 | 54.21891 | 47.23869 | 8455 ft | 273 kts | 100° |
| 2026-04-30 20:14 | 54.21646 | 47.27085 | 8192 ft | 272 kts | 99° |
| 2026-04-30 20:14 | 54.21402 | 47.30281 | 7906 ft | 271 kts | 99° |
| 2026-04-30 20:15 | 54.21159 | 47.33470 | 7625 ft | 270 kts | 99° |
| 2026-04-30 20:15 | 54.20915 | 47.36646 | 7352 ft | 270 kts | 98° |
| 2026-04-30 20:15 | 54.20673 | 47.39811 | 7104 ft | 268 kts | 98° |
| 2026-04-30 20:15 | 54.20436 | 47.42896 | 7130 ft | 255 kts | 98° |
| 2026-04-30 20:16 | 54.20207 | 47.45866 | 6752 ft | 258 kts | 98° |
| 2026-04-30 20:16 | 54.19965 | 47.48973 | 6318 ft | 261 kts | 98° |
| 2026-04-30 20:16 | 54.19727 | 47.52041 | 5917 ft | 261 kts | 97° |
| 2026-04-30 20:16 | 54.19492 | 47.55059 | 5665 ft | 252 kts | 97° |
| 2026-04-30 20:17 | 54.19261 | 47.58014 | 5385 ft | 252 kts | 97° |
| 2026-04-30 20:17 | 54.19108 | 47.59977 | 5210 ft | 251 kts | 97° |
| 2026-04-30 20:17 | 54.19012 | 47.61193 | 5099 ft | 251 kts | 97° |
| 2026-04-30 20:17 | 54.18780 | 47.64145 | 4837 ft | 251 kts | 97° |
| 2026-04-30 20:18 | 54.18547 | 47.67096 | 4545 ft | 251 kts | 97° |
| 2026-04-30 20:18 | 54.18314 | 47.70043 | 4290 ft | 250 kts | 97° |
| 2026-04-30 20:18 | 54.18079 | 47.72989 | 4012 ft | 250 kts | 97° |
| 2026-04-30 20:18 | 54.17845 | 47.75933 | 3702 ft | 251 kts | 96° |
| 2026-04-30 20:19 | 54.17611 | 47.78875 | 3376 ft | 247 kts | 96° |
| 2026-04-30 20:19 | 54.17458 | 47.80781 | 3220 ft | 243 kts | 96° |
| 2026-04-30 20:19 | 54.17151 | 47.84608 | 2850 ft | 243 kts | 96° |
| 2026-04-30 20:19 | 54.16920 | 47.87459 | 2605 ft | 243 kts | 96° |
| 2026-04-30 20:20 | 54.16681 | 47.90314 | 2301 ft | 243 kts | 98° |
| 2026-04-30 20:20 | 54.16056 | 47.92949 | 2121 ft | 243 kts | 124° |
| 2026-04-30 20:20 | 54.15003 | 47.95114 | 2163 ft | 238 kts | 125° |
| 2026-04-30 20:20 | 54.14080 | 47.97466 | 2086 ft | 236 kts | 117° |
| 2026-04-30 20:21 | 54.13265 | 47.99845 | 2079 ft | 224 kts | 117° |
| 2026-04-30 20:21 | 54.12522 | 48.02023 | 2067 ft | 205 kts | 114° |
| 2026-04-30 20:21 | 54.12315 | 48.04205 | 2042 ft | 176 kts | 69° |
| 2026-04-30 20:21 | 54.13042 | 48.05681 | 2126 ft | 163 kts | 35° |
| 2026-04-30 20:22 | 54.13977 | 48.06817 | 2081 ft | 164 kts | 46° |
| 2026-04-30 20:22 | 54.14620 | 48.08374 | 2097 ft | 159 kts | 60° |
| 2026-04-30 20:22 | 54.15245 | 48.09916 | 2070 ft | 159 kts | 41° |
| 2026-04-30 20:22 | 54.16257 | 48.10658 | 2127 ft | 163 kts | 15° |
| 2026-04-30 20:23 | 54.17363 | 48.11173 | 2073 ft | 163 kts | 29° |
| 2026-04-30 20:23 | 54.18059 | 48.12590 | 2123 ft | 159 kts | 72° |
| 2026-04-30 20:23 | 54.18328 | 48.14394 | 2045 ft | 155 kts | 66° |
| 2026-04-30 20:23 | 54.19041 | 48.15743 | 1626 ft | 161 kts | 27° |
| 2026-04-30 20:24 | 54.20064 | 48.16272 | 1583 ft | 144 kts | 13° |
| 2026-04-30 20:24 | 54.21015 | 48.16562 | 1506 ft | 141 kts | 14° |
| 2026-04-30 20:24 | 54.21951 | 48.17170 | 1218 ft | 144 kts | 32° |
| 2026-04-30 20:24 | 54.22800 | 48.18083 | 1128 ft | 148 kts | 31° |
| 2026-04-30 20:25 | 54.24580 | 48.19954 | 679 ft | 147 kts | 31° |
| 2026-04-30 20:25 | 54.25447 | 48.20865 | 534 ft | 148 kts | 31° |
| 2026-04-30 20:26 | 54.27120 | 48.22669 | 405 ft | 118 kts | 31° |
| 2026-04-30 20:26 | 54.28116 | 48.23738 | 407 ft | 51 kts | 32° |
| 2026-04-30 20:26 | 54.28279 | 48.23889 | 408 ft | 5 kts | 352° |
| 2026-04-30 20:27 | 54.28378 | 48.23649 | 404 ft | 16 kts | 302° |
| 2026-04-30 20:27 | 54.28401 | 48.23586 | 404 ft | 0 kts | 303° |
| 2026-04-30 20:30 | 54.28410 | 48.23562 | 403 ft | 7 kts | 303° |
| 2026-04-30 20:30 | 54.28511 | 48.23265 | 402 ft | 9 kts | 298° |
| 2026-04-30 20:31 | 54.28631 | 48.23120 | 404 ft | 8 kts | 44° |
| 2026-04-30 20:32 | 54.28622 | 48.23219 | 404 ft | 0 kts | 123° |